Time;durP1;ratioP1;P1;durP2;ratioP2;P2;SDS_P1;SDS_P2;PMS_P1;PMS_P2;Temp;Humidity;BMP_temperature;BMP_pressure;BME280_temperature;BME280_humidity;BME280_pressure;Samples;Min_cycle;Max_cycle;Signal;HPM_P1;HPM_P2
2022/03/07 00:02:34;;;;;;;20.27;17.73;;;2.70;49.40;;;;;;6224518;28;20866;-61
2022/03/07 00:05:38;;;;;;;19.77;17.47;;;2.70;49.60;;;;;;6228829;28;20543;-62
2022/03/07 00:08:41;;;;;;;22.83;16.63;;;2.60;49.70;;;;;;6208814;28;20484;-61
2022/03/07 00:11:45;;;;;;;24.07;17.37;;;2.60;49.70;;;;;;6205625;28;20496;-61
2022/03/07 00:14:48;;;;;;;22.37;16.50;;;2.60;49.70;;;;;;6205545;28;20489;-61
2022/03/07 00:17:51;;;;;;;20.13;16.40;;;2.60;49.70;;;;;;6215464;28;20833;-60
2022/03/07 00:20:55;;;;;;;24.70;18.77;;;2.60;49.70;;;;;;6221224;28;20481;-61
2022/03/07 00:23:59;;;;;;;22.43;17.90;;;2.50;50.00;;;;;;6221762;28;20464;-61
2022/03/07 00:27:04;;;;;;;20.63;17.60;;;2.50;50.20;;;;;;6221280;28;20472;-60
2022/03/07 00:30:08;;;;;;;22.80;17.27;;;2.50;50.30;;;;;;6219062;28;20492;-60
2022/03/07 00:33:12;;;;;;;23.83;17.40;;;2.40;50.50;;;;;;6221857;28;20503;-60
2022/03/07 00:36:15;;;;;;;21.33;17.73;;;2.40;50.50;;;;;;6214930;28;20484;-60
2022/03/07 00:39:18;;;;;;;19.70;14.90;;;2.30;50.80;;;;;;6221705;28;20473;-60
2022/03/07 00:42:23;;;;;;;24.50;19.00;;;2.20;51.30;;;;;;6210834;28;20481;-60
2022/03/07 00:45:26;;;;;;;22.30;15.77;;;2.20;51.50;;;;;;6206855;28;20811;-60
2022/03/07 00:48:29;;;;;;;21.07;18.10;;;2.20;52.40;;;;;;6206295;28;20999;-60
2022/03/07 00:51:32;;;;;;;22.47;16.47;;;2.10;51.90;;;;;;6205824;28;20472;-59
2022/03/07 00:54:35;;;;;;;22.60;18.07;;;2.10;52.10;;;;;;6206317;28;20512;-59
2022/03/07 00:57:40;;;;;;;23.33;16.77;;;2.10;52.00;;;;;;6205906;28;20485;-59
2022/03/07 01:00:43;;;;;;;23.07;17.90;;;2.00;52.10;;;;;;6206280;28;20958;-58
2022/03/07 01:03:51;;;;;;;23.90;17.33;;;2.00;52.30;;;;;;6201708;28;20995;-59
2022/03/07 01:06:54;;;;;;;21.33;15.77;;;2.00;52.50;;;;;;6205183;28;20473;-59
2022/03/07 01:09:57;;;;;;;22.13;18.43;;;2.00;52.60;;;;;;6205033;28;20988;-58
2022/03/07 01:13:02;;;;;;;24.00;18.60;;;2.00;52.60;;;;;;6204876;28;20469;-58
2022/03/07 01:16:06;;;;;;;22.20;16.70;;;1.90;52.80;;;;;;6205701;28;20587;-59
2022/03/07 01:19:09;;;;;;;20.67;17.20;;;1.80;53.00;;;;;;6204497;28;20480;-59
2022/03/07 01:22:13;;;;;;;21.27;16.97;;;1.80;53.40;;;;;;6203856;28;20473;-59
2022/03/07 01:25:16;;;;;;;24.53;17.67;;;1.80;53.50;;;;;;6204559;28;20469;-59
2022/03/07 01:28:20;;;;;;;21.17;16.83;;;1.80;53.50;;;;;;6204032;28;20466;-59
2022/03/07 01:31:23;;;;;;;24.07;16.80;;;1.80;53.40;;;;;;6204061;28;20957;-59
2022/03/07 01:34:26;;;;;;;20.37;16.43;;;1.70;53.30;;;;;;6204162;28;20472;-60
2022/03/07 01:37:30;;;;;;;21.30;15.80;;;1.70;53.40;;;;;;6203748;28;20485;-60
2022/03/07 01:40:33;;;;;;;21.23;15.93;;;1.60;53.70;;;;;;6203494;28;20489;-60
2022/03/07 01:43:37;;;;;;;22.43;16.63;;;1.60;53.70;;;;;;6203702;28;20512;-60
2022/03/07 01:46:40;;;;;;;21.90;16.70;;;1.60;53.50;;;;;;6203568;28;20481;-60
2022/03/07 01:49:44;;;;;;;19.83;16.57;;;1.60;53.60;;;;;;6203731;28;21009;-60
2022/03/07 01:52:50;;;;;;;20.43;15.77;;;1.60;53.70;;;;;;6203652;28;20921;-60
2022/03/07 01:55:56;;;;;;;19.87;15.70;;;1.60;53.70;;;;;;6203605;28;20422;-61
2022/03/07 01:59:00;;;;;;;23.17;17.80;;;1.60;53.60;;;;;;6203159;28;20485;-60
2022/03/07 02:02:05;;;;;;;20.83;15.50;;;1.50;53.70;;;;;;6203073;28;20560;-60
2022/03/07 02:05:10;;;;;;;19.77;16.80;;;1.50;53.90;;;;;;6203835;28;20469;-60
2022/03/07 02:08:13;;;;;;;18.23;15.57;;;1.50;54.20;;;;;;6204873;28;20492;-59
2022/03/07 02:11:16;;;;;;;21.80;17.10;;;1.50;54.00;;;;;;6205741;28;20543;-59
2022/03/07 02:14:23;;;;;;;22.70;16.57;;;1.40;54.00;;;;;;6202998;28;20469;-59
2022/03/07 02:17:27;;;;;;;19.80;16.33;;;1.40;54.20;;;;;;6202584;28;20539;-59
2022/03/07 02:20:30;;;;;;;21.97;16.73;;;1.30;54.20;;;;;;6203003;28;20539;-59
2022/03/07 02:23:36;;;;;;;20.27;15.87;;;1.30;54.40;;;;;;6202848;28;20485;-59
2022/03/07 02:26:39;;;;;;;21.23;15.40;;;1.30;54.50;;;;;;6202869;28;20481;-59
2022/03/07 02:29:43;;;;;;;22.60;17.53;;;1.30;54.60;;;;;;6202247;28;20485;-59
2022/03/07 02:32:46;;;;;;;18.73;15.73;;;1.30;54.60;;;;;;6202657;28;20469;-59
2022/03/07 02:35:49;;;;;;;23.83;16.80;;;1.30;54.70;;;;;;6203020;28;20489;-59
2022/03/07 02:38:53;;;;;;;21.10;17.30;;;1.30;54.70;;;;;;6201960;28;20488;-59
2022/03/07 02:41:56;;;;;;;22.23;16.40;;;1.20;54.80;;;;;;6202253;28;20480;-59
2022/03/07 02:44:59;;;;;;;22.83;16.23;;;1.20;54.80;;;;;;6202418;28;20535;-59
2022/03/07 02:48:03;;;;;;;22.00;16.10;;;1.10;54.80;;;;;;6202210;28;20837;-59
2022/03/07 02:51:06;;;;;;;19.93;17.20;;;1.00;55.30;;;;;;6202153;28;20950;-59
2022/03/07 02:54:11;;;;;;;21.40;16.57;;;1.00;55.70;;;;;;6201839;28;20957;-59
2022/03/07 02:57:14;;;;;;;23.23;15.90;;;1.00;55.60;;;;;;6201852;28;20485;-60
2022/03/07 03:00:17;;;;;;;24.87;17.57;;;1.00;55.00;;;;;;6201633;28;20481;-60
2022/03/07 03:03:23;;;;;;;22.77;15.43;;;0.90;55.50;;;;;;6202119;28;20465;-59
2022/03/07 03:06:26;;;;;;;19.57;16.70;;;0.90;55.80;;;;;;6201778;28;20564;-62
2022/03/07 03:09:31;;;;;;;26.03;16.77;;;0.90;55.80;;;;;;6201387;28;20481;-61
2022/03/07 03:12:34;;;;;;;19.67;15.37;;;0.90;55.70;;;;;;6192088;28;20957;-61
2022/03/07 03:15:37;;;;;;;21.73;16.27;;;0.90;55.70;;;;;;6201065;28;20504;-61
2022/03/07 03:18:40;;;;;;;20.20;17.23;;;0.80;55.60;;;;;;6208152;28;20508;-61
2022/03/07 03:21:43;;;;;;;22.97;16.37;;;0.70;55.90;;;;;;6204081;28;20484;-61
2022/03/07 03:24:48;;;;;;;23.90;17.27;;;0.70;56.10;;;;;;6209737;28;20477;-61
2022/03/07 03:27:51;;;;;;;20.87;17.23;;;0.70;56.20;;;;;;6218983;28;20472;-61
2022/03/07 03:30:54;;;;;;;21.83;15.87;;;0.70;56.00;;;;;;6225488;28;20956;-61
2022/03/07 03:33:58;;;;;;;22.93;17.40;;;0.70;56.20;;;;;;6225800;28;20827;-61
2022/03/07 03:37:01;;;;;;;20.07;14.83;;;0.70;56.20;;;;;;6225407;28;20474;-59
2022/03/07 03:40:08;;;;;;;21.67;16.07;;;0.60;56.10;;;;;;6225221;28;20507;-62
2022/03/07 03:43:11;;;;;;;21.80;16.07;;;0.60;56.20;;;;;;6225708;28;20515;-59
2022/03/07 03:46:14;;;;;;;26.00;18.10;;;0.60;56.20;;;;;;6225403;28;20479;-61
2022/03/07 03:49:17;;;;;;;22.40;17.07;;;0.50;56.10;;;;;;6225267;28;20476;-61
2022/03/07 03:52:20;;;;;;;18.57;15.60;;;0.50;56.50;;;;;;6225836;28;20800;-60
2022/03/07 03:55:25;;;;;;;24.27;17.27;;;0.40;56.50;;;;;;6227220;28;20468;-60
2022/03/07 03:58:28;;;;;;;26.37;17.10;;;0.50;56.80;;;;;;6225202;28;20476;-60
2022/03/07 04:01:31;;;;;;;19.83;16.60;;;0.40;56.60;;;;;;6225494;28;20530;-60
2022/03/07 04:04:34;;;;;;;24.27;17.97;;;0.40;56.80;;;;;;6225189;28;20975;-61
2022/03/07 04:07:38;;;;;;;21.47;16.63;;;0.30;56.50;;;;;;6225200;28;20530;-61
2022/03/07 04:10:42;;;;;;;26.47;17.33;;;0.30;57.00;;;;;;6224960;28;20839;-60
2022/03/07 04:13:45;;;;;;;23.13;17.30;;;0.20;57.10;;;;;;6225485;28;20467;-61
2022/03/07 04:16:48;;;;;;;22.83;17.30;;;0.20;57.50;;;;;;6225245;28;20460;-60
2022/03/07 04:19:51;;;;;;;24.43;17.83;;;0.20;57.60;;;;;;6225340;28;20492;-60
2022/03/07 04:22:55;;;;;;;21.13;16.80;;;0.10;57.70;;;;;;6225185;28;20452;-60
2022/03/07 04:25:59;;;;;;;19.37;15.53;;;0.00;57.90;;;;;;6225371;28;20524;-61
2022/03/07 04:29:05;;;;;;;21.03;16.87;;;-0.10;58.10;;;;;;6224984;28;20461;-60
2022/03/07 04:32:08;;;;;;;22.43;17.37;;;-0.10;58.30;;;;;;6225458;28;20522;-60
2022/03/07 04:35:12;;;;;;;21.83;16.37;;;-0.10;58.50;;;;;;6225379;28;20486;-59
2022/03/07 04:38:15;;;;;;;22.13;15.50;;;0.00;58.60;;;;;;6225300;28;20482;-60
2022/03/07 04:41:20;;;;;;;25.10;17.07;;;0.00;58.60;;;;;;6228262;28;20472;-61
2022/03/07 04:44:23;;;;;;;23.63;16.37;;;0.00;58.50;;;;;;6229860;28;20480;-60
2022/03/07 04:47:26;;;;;;;22.10;15.87;;;-0.10;58.50;;;;;;6229134;28;20472;-61
2022/03/07 04:50:29;;;;;;;24.10;17.70;;;-0.10;58.60;;;;;;6229398;28;20483;-60
2022/03/07 04:53:32;;;;;;;19.30;16.37;;;-0.10;58.80;;;;;;6229529;28;20963;-60
2022/03/07 04:56:37;;;;;;;24.70;18.20;;;-0.10;58.80;;;;;;6230421;28;20480;-60
2022/03/07 04:59:40;;;;;;;22.63;17.17;;;-0.10;58.80;;;;;;6230334;28;20476;-60
2022/03/07 05:02:43;;;;;;;21.27;16.20;;;-0.10;58.80;;;;;;6215857;28;20472;-60
2022/03/07 05:05:46;;;;;;;24.90;17.50;;;-0.10;58.80;;;;;;6223515;28;20818;-60
2022/03/07 05:08:49;;;;;;;26.53;16.50;;;-0.10;58.80;;;;;;6204449;28;20496;-60
2022/03/07 05:11:54;;;;;;;21.40;16.07;;;-0.10;59.10;;;;;;6218654;28;20472;-61
2022/03/07 05:14:57;;;;;;;24.57;17.07;;;-0.20;58.90;;;;;;6228522;28;20483;-61
2022/03/07 05:18:00;;;;;;;21.90;18.17;;;-0.20;59.10;;;;;;6228818;28;20550;-60
2022/03/07 05:21:04;;;;;;;22.53;18.87;;;-0.20;59.40;;;;;;6228680;28;20539;-60
2022/03/07 05:24:09;;;;;;;24.23;18.57;;;-0.30;59.30;;;;;;6228555;28;20469;-60
2022/03/07 05:27:13;;;;;;;23.60;16.07;;;-0.30;59.60;;;;;;6227938;28;20469;-61
2022/03/07 05:30:19;;;;;;;23.80;17.30;;;-0.20;59.60;;;;;;6228508;28;20979;-61
2022/03/07 05:33:22;;;;;;;26.00;17.30;;;-0.30;59.60;;;;;;6228640;28;20546;-60
2022/03/07 05:36:25;;;;;;;26.43;18.23;;;-0.20;59.80;;;;;;6231080;28;20483;-60
2022/03/07 05:39:28;;;;;;;23.43;17.20;;;-0.30;59.60;;;;;;6228879;28;20489;-60
2022/03/07 05:42:32;;;;;;;29.63;18.53;;;-0.30;59.60;;;;;;6228172;28;20480;-60
2022/03/07 05:45:35;;;;;;;26.87;20.07;;;-0.20;59.80;;;;;;6227873;28;20478;-60
2022/03/07 05:48:39;;;;;;;25.50;18.83;;;-0.20;59.60;;;;;;6228000;28;20488;-60
2022/03/07 05:51:43;;;;;;;26.40;18.50;;;-0.30;59.90;;;;;;6226883;28;20531;-61
2022/03/07 05:54:47;;;;;;;25.63;19.43;;;-0.20;60.10;;;;;;6226653;28;20465;-60
2022/03/07 05:57:51;;;;;;;25.27;17.07;;;-0.20;59.80;;;;;;6227194;28;20960;-60
2022/03/07 06:00:54;;;;;;;22.00;18.33;;;-0.10;59.80;;;;;;6225883;28;20523;-61
2022/03/07 06:03:57;;;;;;;26.43;19.70;;;-0.10;59.60;;;;;;6225896;28;20482;-61
2022/03/07 06:07:00;;;;;;;30.67;20.10;;;-0.10;59.50;;;;;;6225877;28;20487;-61
2022/03/07 06:10:04;;;;;;;26.13;18.20;;;-0.10;59.50;;;;;;6218549;28;20485;-61
2022/03/07 06:13:09;;;;;;;22.13;16.77;;;0.00;59.70;;;;;;6214096;28;20480;-61
2022/03/07 06:16:12;;;;;;;22.83;18.77;;;0.00;59.70;;;;;;6202678;28;20488;-62
2022/03/07 06:19:16;;;;;;;22.17;17.43;;;0.00;59.60;;;;;;6202052;28;20482;-61
2022/03/07 06:22:19;;;;;;;29.40;20.20;;;0.10;59.50;;;;;;6202346;28;20492;-60
2022/03/07 06:25:22;;;;;;;33.13;20.07;;;0.10;59.50;;;;;;6192213;28;20500;-60
2022/03/07 06:28:26;;;;;;;25.23;18.50;;;0.20;59.50;;;;;;6200763;28;20480;-61
2022/03/07 06:31:30;;;;;;;29.07;19.53;;;0.20;59.40;;;;;;6201181;28;20473;-60
2022/03/07 06:34:34;;;;;;;26.47;18.07;;;0.40;59.20;;;;;;6200829;28;20620;-61
2022/03/07 06:37:37;;;;;;;25.73;20.13;;;0.40;59.10;;;;;;6200682;28;20477;-61
2022/03/07 06:40:40;;;;;;;25.73;18.17;;;0.50;59.00;;;;;;6200988;28;20969;-60
2022/03/07 06:43:44;;;;;;;24.73;20.27;;;0.60;58.80;;;;;;6202411;28;20528;-60
2022/03/07 06:46:47;;;;;;;27.90;19.20;;;0.70;58.50;;;;;;6202077;28;20857;-61
2022/03/07 06:49:56;;;;;;;28.90;19.77;;;0.80;58.10;;;;;;6202061;28;20926;-60
2022/03/07 06:52:59;;;;;;;26.87;19.40;;;0.90;58.00;;;;;;6201657;28;20763;-61
2022/03/07 06:56:03;;;;;;;26.97;19.50;;;1.10;57.50;;;;;;6202059;28;20457;-61
2022/03/07 06:59:07;;;;;;;28.63;19.57;;;1.20;57.20;;;;;;6201434;28;20946;-60
2022/03/07 07:02:10;;;;;;;24.80;18.87;;;1.30;57.10;;;;;;6201755;28;20956;-61
2022/03/07 07:05:15;;;;;;;30.20;22.97;;;1.40;56.80;;;;;;6201115;28;20909;-60
2022/03/07 07:08:18;;;;;;;27.27;20.33;;;1.50;56.60;;;;;;6202050;28;20473;-60
2022/03/07 07:11:22;;;;;;;25.00;20.20;;;1.50;56.30;;;;;;6201904;28;20465;-60
2022/03/07 07:14:26;;;;;;;28.73;21.77;;;1.60;56.00;;;;;;6201683;28;20483;-60
2022/03/07 07:17:29;;;;;;;23.50;20.70;;;1.80;55.70;;;;;;6201421;28;20473;-60
2022/03/07 07:20:32;;;;;;;27.20;20.33;;;2.00;55.50;;;;;;6221353;28;20995;-61
2022/03/07 07:23:37;;;;;;;29.33;20.63;;;2.10;55.20;;;;;;6225608;28;20484;-61
2022/03/07 07:26:40;;;;;;;29.73;21.07;;;2.20;54.80;;;;;;6217366;28;20936;-61
2022/03/07 07:29:44;;;;;;;30.07;20.33;;;2.40;54.60;;;;;;6206740;28;20559;-61
2022/03/07 07:32:47;;;;;;;25.30;20.33;;;2.50;54.00;;;;;;6212193;28;20779;-61
2022/03/07 07:35:50;;;;;;;24.27;20.67;;;2.70;53.60;;;;;;6214118;28;20568;-61
2022/03/07 07:38:54;;;;;;;25.27;18.83;;;2.90;52.80;;;;;;6213897;28;20492;-61
2022/03/07 07:41:57;;;;;;;25.73;20.80;;;3.20;52.30;;;;;;6211718;28;20484;-61
2022/03/07 07:45:01;;;;;;;23.57;19.23;;;3.40;51.00;;;;;;6212131;28;20478;-61
2022/03/07 07:48:05;;;;;;;27.97;20.07;;;3.60;50.50;;;;;;6205523;28;20473;-63
2022/03/07 07:51:08;;;;;;;25.97;19.57;;;3.70;49.70;;;;;;6206750;28;20489;-61
2022/03/07 07:54:11;;;;;;;24.00;19.83;;;4.10;50.00;;;;;;6212368;28;20465;-62
2022/03/07 07:57:15;;;;;;;29.03;20.30;;;6.10;48.40;;;;;;6225550;28;20480;-62
2022/03/07 08:00:21;;;;;;;27.20;19.93;;;8.50;42.50;;;;;;6215553;28;20476;-61
2022/03/07 08:03:24;;;;;;;22.80;19.00;;;11.00;37.50;;;;;;6213009;28;20479;-62
2022/03/07 08:06:27;;;;;;;23.73;21.20;;;11.60;33.00;;;;;;6212817;28;20481;-61
2022/03/07 08:09:30;;;;;;;25.70;20.70;;;12.20;31.90;;;;;;6211392;28;20536;-61
2022/03/07 08:12:33;;;;;;;24.60;21.23;;;11.40;31.50;;;;;;6200506;28;20488;-63
2022/03/07 08:15:40;;;;;;;28.93;21.13;;;10.10;32.40;;;;;;6206512;28;20482;-62
2022/03/07 08:18:43;;;;;;;29.73;21.17;;;9.70;34.40;;;;;;6215571;28;20499;-62
2022/03/07 08:21:46;;;;;;;25.83;21.60;;;11.30;33.40;;;;;;6217731;28;20482;-61
2022/03/07 08:24:49;;;;;;;25.33;22.70;;;13.30;30.40;;;;;;6215336;28;20792;-60
2022/03/07 08:27:52;;;;;;;28.13;23.10;;;13.50;28.90;;;;;;6216791;28;20475;-61
2022/03/07 08:30:57;;;;;;;24.27;21.23;;;14.20;28.80;;;;;;6212147;28;20486;-59
2022/03/07 08:34:01;;;;;;;25.27;22.50;;;15.80;27.50;;;;;;6217797;28;21052;-60
2022/03/07 08:37:04;;;;;;;25.07;22.37;;;17.60;26.60;;;;;;6215624;28;20473;-60
2022/03/07 08:40:09;;;;;;;25.60;23.10;;;19.20;25.00;;;;;;6216989;28;20982;-61
2022/03/07 08:43:12;;;;;;;25.97;23.20;;;21.00;23.90;;;;;;6217785;28;20225;-60
2022/03/07 08:46:17;;;;;;;26.00;23.60;;;22.50;21.80;;;;;;6226796;28;20225;-60
2022/03/07 08:49:20;;;;;;;28.33;25.43;;;23.10;21.00;;;;;;6209728;28;20549;-62
2022/03/07 08:52:23;;;;;;;27.57;24.90;;;22.80;20.70;;;;;;6225187;28;20233;-61
2022/03/07 08:55:27;;;;;;;25.77;23.37;;;22.60;20.40;;;;;;6228571;28;20310;-60
2022/03/07 08:58:30;;;;;;;27.53;24.80;;;23.10;20.20;;;;;;6223279;28;20226;-62
2022/03/07 09:01:34;;;;;;;26.73;24.33;;;23.70;19.70;;;;;;6222834;28;20228;-61
2022/03/07 09:04:39;;;;;;;26.03;23.53;;;24.10;19.20;;;;;;6228311;28;20233;-61
2022/03/07 09:07:43;;;;;;;27.37;24.93;;;25.10;18.90;;;;;;6228116;28;20303;-60
2022/03/07 09:10:46;;;;;;;27.60;25.20;;;25.60;18.20;;;;;;6228060;28;20240;-61
2022/03/07 09:13:49;;;;;;;28.17;25.63;;;25.90;18.00;;;;;;6228365;28;20278;-61
2022/03/07 09:16:54;;;;;;;26.97;24.57;;;26.60;17.20;;;;;;6224964;28;20194;-60
2022/03/07 09:19:58;;;;;;;28.47;25.60;;;26.40;17.20;;;;;;6203767;28;20236;-60
2022/03/07 09:23:06;;;;;;;28.30;26.00;;;26.80;17.10;;;;;;6203597;28;20492;-61
2022/03/07 09:26:10;;;;;;;26.50;24.40;;;27.50;16.20;;;;;;6202683;28;20654;-60
2022/03/07 09:29:13;;;;;;;30.67;27.53;;;28.10;16.30;;;;;;6203448;28;20229;-62
2022/03/07 09:32:18;;;;;;;28.33;25.93;;;27.80;15.90;;;;;;6203709;28;20240;-61
2022/03/07 09:35:21;;;;;;;26.80;24.50;;;28.40;15.70;;;;;;6196594;28;20256;-61
2022/03/07 09:38:24;;;;;;;27.43;24.93;;;26.30;16.20;;;;;;6227906;28;20560;-61
2022/03/07 09:41:28;;;;;;;25.70;23.60;;;26.60;16.90;;;;;;6227328;28;20232;-60
2022/03/07 09:44:31;;;;;;;26.60;24.40;;;24.40;17.00;;;;;;6227399;28;20247;-61
2022/03/07 09:47:39;;;;;;;27.13;24.70;;;23.40;17.60;;;;;;6227706;28;20232;-60
2022/03/07 09:50:44;;;;;;;25.53;22.80;;;22.20;18.10;;;;;;6225123;28;20243;-60
2022/03/07 09:53:47;;;;;;;26.80;24.10;;;20.10;19.00;;;;;;6202817;28;20670;-61
2022/03/07 09:56:51;;;;;;;25.23;22.83;;;19.20;20.30;;;;;;6203123;28;20230;-60
2022/03/07 09:59:54;;;;;;;24.67;22.47;;;19.00;20.10;;;;;;6227328;28;20693;-60
2022/03/07 10:03:02;;;;;;;25.00;22.40;;;18.30;20.70;;;;;;6227649;28;20708;-60
2022/03/07 10:06:12;;;;;;;23.73;21.40;;;19.50;20.40;;;;;;6227411;28;20287;-60
2022/03/07 10:09:20;;;;;;;25.50;23.10;;;22.00;19.50;;;;;;6227157;28;20241;-60
2022/03/07 10:12:28;;;;;;;25.67;23.00;;;23.90;18.40;;;;;;6227272;28;20240;-61
2022/03/07 10:15:32;;;;;;;25.97;23.60;;;24.90;17.40;;;;;;6226862;28;20304;-63
2022/03/07 10:18:36;;;;;;;25.97;23.33;;;25.10;17.10;;;;;;6202841;28;20377;-61
2022/03/07 10:21:46;;;;;;;25.20;23.00;;;23.70;17.50;;;;;;6202392;28;20245;-62
2022/03/07 10:24:58;;;;;;;25.80;23.47;;;24.60;16.90;;;;;;6218360;28;20233;-62
2022/03/07 10:28:03;;;;;;;25.37;22.87;;;23.10;17.40;;;;;;6226825;28;20225;-61
2022/03/07 10:31:14;;;;;;;25.37;22.90;;;22.70;17.60;;;;;;6226887;28;20245;-61
2022/03/07 10:34:18;;;;;;;22.90;20.73;;;20.90;18.20;;;;;;6226277;28;20233;-60
2022/03/07 10:37:32;;;;;;;23.50;21.20;;;19.20;19.10;;;;;;6226125;28;20236;-63
2022/03/07 10:40:39;;;;;;;21.63;19.53;;;17.90;20.50;;;;;;6216438;28;20711;-61
2022/03/07 10:43:49;;;;;;;22.10;19.87;;;18.60;20.80;;;;;;6226193;28;20229;-62
2022/03/07 10:46:52;;;;;;;22.73;20.80;;;21.50;19.30;;;;;;6226578;28;20288;-59
2022/03/07 10:49:59;;;;;;;23.57;21.47;;;24.00;18.20;;;;;;6226352;28;20675;-60
2022/03/07 10:53:04;;;;;;;24.17;21.97;;;26.30;16.90;;;;;;6219501;28;20249;-59
2022/03/07 10:56:07;;;;;;;25.83;23.63;;;27.10;15.60;;;;;;6211105;28;20505;-59
2022/03/07 10:59:11;;;;;;;23.77;21.77;;;28.90;15.20;;;;;;6219432;28;20232;-59
2022/03/07 11:02:17;;;;;;;24.70;22.50;;;29.50;14.20;;;;;;6203340;28;20311;-61
2022/03/07 11:05:22;;;;;;;26.60;24.30;;;27.10;14.60;;;;;;6207999;28;20295;-61
2022/03/07 11:08:26;;;;;;;25.70;23.43;;;25.70;16.10;;;;;;6210717;28;20237;-61
2022/03/07 11:11:29;;;;;;;24.13;22.07;;;27.50;15.90;;;;;;6217468;28;20228;-60
2022/03/07 11:14:33;;;;;;;23.60;21.60;;;28.20;14.50;;;;;;6199631;28;20232;-61
2022/03/07 11:17:41;;;;;;;25.27;23.07;;;26.90;14.60;;;;;;6199603;28;20229;-59
2022/03/07 11:20:47;;;;;;;24.70;22.63;;;25.30;15.70;;;;;;6200086;28;20248;-59
2022/03/07 11:23:50;;;;;;;26.50;24.30;;;25.70;16.20;;;;;;6200276;28;20237;-60
2022/03/07 11:26:55;;;;;;;24.03;21.93;;;26.90;15.60;;;;;;6200662;28;20229;-61
2022/03/07 11:29:59;;;;;;;24.20;22.07;;;26.60;15.50;;;;;;6201116;28;20625;-62
2022/03/07 11:33:10;;;;;;;24.70;22.70;;;27.30;15.30;;;;;;6201039;28;20229;-60
2022/03/07 11:36:20;;;;;;;23.80;21.90;;;28.60;14.60;;;;;;6200946;28;20229;-64
2022/03/07 11:39:31;;;;;;;23.50;21.50;;;29.60;14.80;;;;;;6201029;28;20716;-59
2022/03/07 11:42:36;;;;;;;25.23;22.97;;;31.10;13.60;;;;;;6199736;28;20229;-60
2022/03/07 11:45:39;;;;;;;24.48;22.55;;;32.80;12.80;;;;;;6225165;28;20236;-59
2022/03/07 11:48:47;;;;;;;25.35;23.35;;;32.70;12.00;;;;;;6225815;28;20695;-61
2022/03/07 11:52:00;;;;;;;23.73;21.73;;;32.60;12.20;;;;;;6225818;28;20238;-59
2022/03/07 11:55:08;;;;;;;24.63;22.58;;;33.90;12.10;;;;;;6233394;28;20239;-61
2022/03/07 11:58:11;;;;;;;24.02;22.15;;;34.00;12.00;;;;;;6233298;28;20244;-61
2022/03/07 12:01:14;;;;;;;25.38;23.35;;;33.70;11.60;;;;;;6233432;28;20246;-61
2022/03/07 12:04:18;;;;;;;24.20;22.15;;;32.10;11.80;;;;;;6232852;28;20236;-62
2022/03/07 12:07:27;;;;;;;24.58;22.67;;;31.40;12.40;;;;;;6232917;28;20734;-62
2022/03/07 12:10:30;;;;;;;25.17;23.08;;;32.60;12.10;;;;;;6234112;28;20236;-61
2022/03/07 12:13:36;;;;;;;23.50;21.77;;;33.20;12.00;;;;;;6236598;28;20243;-61
2022/03/07 12:16:40;;;;;;;24.77;22.83;;;34.80;11.40;;;;;;6234663;28;20233;-60
2022/03/07 12:19:44;;;;;;;26.02;23.92;;;35.90;10.90;;;;;;6210939;28;20700;-58
2022/03/07 12:22:49;;;;;;;24.45;22.63;;;34.40;10.80;;;;;;6208624;28;20568;-58
2022/03/07 12:26:01;;;;;;;26.40;24.07;;;31.30;12.00;;;;;;6208372;28;20232;-59
2022/03/07 12:29:04;;;;;;;24.50;22.30;;;30.50;12.50;;;;;;6214193;28;20271;-62
2022/03/07 12:32:08;;;;;;;25.80;23.77;;;32.30;12.30;;;;;;6227103;28;20212;-60
2022/03/07 12:35:11;;;;;;;25.77;23.73;;;32.90;11.80;;;;;;6232758;28;20664;-59
2022/03/07 12:38:16;;;;;;;27.02;24.90;;;32.00;11.80;;;;;;6232744;28;20238;-61
2022/03/07 12:41:20;;;;;;;25.55;23.20;;;32.20;12.20;;;;;;6232595;28;20243;-60
2022/03/07 12:44:25;;;;;;;24.58;22.67;;;32.40;11.80;;;;;;6214349;28;20239;-61
2022/03/07 12:47:30;;;;;;;26.13;24.13;;;32.90;11.60;;;;;;6199596;28;20331;-60
2022/03/07 12:50:34;;;;;;;24.08;22.17;;;33.60;11.50;;;;;;6216782;28;20244;-59
2022/03/07 12:53:47;;;;;;;27.10;24.90;;;34.00;11.20;;;;;;6233232;28;20224;-61
2022/03/07 12:56:50;;;;;;;27.07;24.87;;;33.00;11.20;;;;;;6232726;28;20239;-59
2022/03/07 12:59:58;;;;;;;25.83;23.73;;;30.60;12.20;;;;;;6232701;28;20680;-60
2022/03/07 13:03:05;;;;;;;23.83;21.83;;;31.10;12.40;;;;;;6228621;28;20252;-61
2022/03/07 13:06:08;;;;;;;24.92;23.02;;;32.50;12.10;;;;;;6228890;28;20287;-60
2022/03/07 13:09:12;;;;;;;24.35;22.45;;;34.70;11.40;;;;;;6228478;28;20232;-60
2022/03/07 13:12:16;;;;;;;23.13;21.42;;;35.70;10.60;;;;;;6228144;28;20228;-60
2022/03/07 13:15:19;;;;;;;25.13;23.08;;;36.40;10.40;;;;;;6228431;28;20244;-60
2022/03/07 13:18:22;;;;;;;25.20;22.95;;;35.90;10.20;;;;;;6228189;28;20239;-60
2022/03/07 13:21:26;;;;;;;26.63;24.52;;;34.10;10.70;;;;;;6228217;28;20232;-60
2022/03/07 13:24:30;;;;;;;25.48;23.33;;;34.30;10.80;;;;;;6228003;28;20664;-61
2022/03/07 13:27:44;;;;;;;25.45;23.35;;;34.50;10.70;;;;;;6228288;28;20247;-60
2022/03/07 13:30:50;;;;;;;23.77;21.90;;;33.90;10.70;;;;;;6228088;28;20240;-59
2022/03/07 13:33:57;;;;;;;23.88;22.08;;;32.10;11.00;;;;;;6228388;28;20235;-59
2022/03/07 13:37:00;;;;;;;24.90;22.73;;;31.30;11.60;;;;;;6227958;28;20719;-60
2022/03/07 13:40:07;;;;;;;24.10;22.20;;;31.50;11.70;;;;;;6227688;28;20303;-60
2022/03/07 13:43:10;;;;;;;24.88;22.60;;;32.20;11.40;;;;;;6227781;28;20250;-59
2022/03/07 13:46:15;;;;;;;23.23;21.40;;;31.20;11.70;;;;;;6227672;28;20282;-59
2022/03/07 13:49:18;;;;;;;24.57;22.47;;;31.10;12.00;;;;;;6227406;28;20232;-59
2022/03/07 13:52:23;;;;;;;24.83;22.77;;;29.50;12.40;;;;;;6210691;28;20228;-60
2022/03/07 13:55:33;;;;;;;25.23;23.13;;;27.50;13.30;;;;;;6227508;28;20251;-60
2022/03/07 13:58:37;;;;;;;24.37;22.00;;;24.40;14.50;;;;;;6227113;28;20237;-59
2022/03/07 14:01:40;;;;;;;24.23;21.93;;;22.10;16.30;;;;;;6227750;28;20245;-59
2022/03/07 14:04:58;;;;;;;23.83;20.77;;;20.40;17.30;;;;;;6227388;28;20240;-62
2022/03/07 14:08:02;;;;;;;22.70;20.40;;;19.10;18.20;;;;;;6227489;28;20217;-59
2022/03/07 14:11:26;;;;;;;21.80;19.80;;;18.00;19.00;;;;;;6227452;28;20279;-59
2022/03/07 14:14:29;;;;;;;20.67;18.40;;;16.80;19.90;;;;;;6226939;28;20229;-59
2022/03/07 14:17:34;;;;;;;21.53;19.40;;;16.00;20.70;;;;;;6228862;28;20983;-59
2022/03/07 14:20:39;;;;;;;23.03;19.27;;;15.40;21.50;;;;;;6227925;28;20476;-59
2022/03/07 14:23:42;;;;;;;21.17;19.00;;;15.00;21.90;;;;;;6227390;28;20468;-59
2022/03/07 14:26:50;;;;;;;20.43;18.27;;;14.60;22.00;;;;;;6222769;28;20488;-59
2022/03/07 14:29:53;;;;;;;19.80;17.90;;;14.00;22.80;;;;;;6220396;28;20816;-59
2022/03/07 14:32:56;;;;;;;23.83;21.33;;;13.80;23.20;;;;;;6226568;28;20543;-59
2022/03/07 14:35:59;;;;;;;21.57;19.47;;;13.60;23.20;;;;;;6226592;28;20483;-59
2022/03/07 14:39:05;;;;;;;21.43;19.30;;;13.50;23.70;;;;;;6210449;28;20485;-59
2022/03/07 14:42:11;;;;;;;20.60;18.60;;;13.10;24.00;;;;;;6216946;28;20809;-59
2022/03/07 14:45:15;;;;;;;20.70;18.60;;;12.90;24.20;;;;;;6225301;28;20468;-59
2022/03/07 14:48:18;;;;;;;20.80;18.80;;;12.50;24.50;;;;;;6215069;28;20480;-59
2022/03/07 14:51:22;;;;;;;20.97;18.13;;;12.20;24.80;;;;;;6215089;28;20574;-59
2022/03/07 14:54:25;;;;;;;19.73;17.50;;;11.60;25.30;;;;;;6209696;28;20468;-58
2022/03/07 14:57:29;;;;;;;21.63;18.93;;;11.20;25.40;;;;;;6220640;28;20963;-59
2022/03/07 15:00:33;;;;;;;20.63;18.47;;;11.20;25.60;;;;;;6217640;28;20475;-60
2022/03/07 15:03:36;;;;;;;17.10;15.40;;;11.30;25.60;;;;;;6220668;28;20484;-60
2022/03/07 15:06:39;;;;;;;13.13;11.77;;;11.20;24.60;;;;;;6213473;28;20992;-58
2022/03/07 15:09:45;;;;;;;13.27;11.40;;;10.80;22.70;;;;;;6220194;28;20805;-60
2022/03/07 15:12:49;;;;;;;12.40;11.13;;;10.40;21.20;;;;;;6215564;28;20794;-59
2022/03/07 15:15:53;;;;;;;12.43;11.13;;;10.00;21.40;;;;;;6209067;28;20794;-59
2022/03/07 15:18:57;;;;;;;11.30;9.83;;;9.70;22.00;;;;;;6210491;28;20476;-59
2022/03/07 15:22:00;;;;;;;11.63;10.53;;;9.50;22.80;;;;;;6217373;28;20483;-60
2022/03/07 15:25:04;;;;;;;11.90;10.80;;;9.40;23.10;;;;;;6216654;28;20490;-59
2022/03/07 15:28:08;;;;;;;12.87;11.60;;;9.20;23.00;;;;;;6208747;28;20821;-60
2022/03/07 15:31:14;;;;;;;11.70;10.50;;;8.90;23.10;;;;;;6209015;28;20573;-61
2022/03/07 15:34:18;;;;;;;12.67;11.30;;;8.70;23.50;;;;;;6217027;28;20471;-61
2022/03/07 15:37:21;;;;;;;10.97;9.97;;;8.50;23.90;;;;;;6208357;28;20488;-61
2022/03/07 15:40:25;;;;;;;12.60;11.30;;;8.40;23.90;;;;;;6214382;28;20485;-62